• Join FlightAware (Why Join?)
  • Login
  • US Flag 
09:57AM EDT


 

Airport Tracker/Info


-or-


 

Live Flight TrackerFlight Track Log ✈ SKW6345 ✈ 11-Aug-2013 ✈ KBZN - KSFO

Flight Track Log - Related Links

Times and Time Zones

All times are in EDT time to prevent confusion due to time zone crossing. See the SKW6345 flight status page for this flight to view local times or setup timezone preferences in your user account.

Time Position Orientation Groundspeed Altitude Reporting Facility
EDT Latitude Longitude Course Direction KTS MPH feet Rate Location/Type
02:56PM 45.8006 -111.2242 283° West 200 230 6,200  Level Salt Lake Center
02:57PM 45.7722 -111.3017 242° Southwest 219 252 8,000 1,740 Climbing Salt Lake Center
02:58PM 45.7333 -111.5511 270° West  Level FlightAware Approximate
02:58PM 45.7428 -111.3925 245° Southwest 235 270 9,800  Level Salt Lake Center
02:59PM 45.7486 -111.7017 288° West  Level FlightAware Approximate
02:59PM 45.7306 -111.5006 261° West 269 310 11,700  Level Salt Lake Center
03:00PM 45.7828 -111.8478 290° West  Level FlightAware Approximate
03:00PM 45.7456 -111.6414 279° West 292 336 14,400  Level Salt Lake Center
03:01PM 45.8208 -111.9916 283° West  Level FlightAware Approximate
03:01PM 45.7708 -111.7600 287° West 306 352 16,500  Level Salt Lake Center
03:02PM 45.7983 -111.8822 288° West 320 368 18,300 1,920 Climbing Salt Lake Center
03:03PM 45.8256 -112.0111 287° West 333 383 20,500 1,740 Climbing Salt Lake Center
03:04PM 45.8531 -112.1414 287° West 341 392 22,000 1,560 Climbing Salt Lake Center
03:05PM 45.8094 -112.2628 243° Southwest 347 399 23,800 1,560 Climbing Salt Lake Center
03:06PM 45.7422 -112.4003 235° Southwest 351 404 25,300 1,200 Climbing Salt Lake Center
03:07PM 45.6786 -112.5197 233° Southwest 370 426 26,400 1,080 Climbing Salt Lake Center
03:08PM 45.6139 -112.6422 233° Southwest 384 442 27,600 1,020 Climbing Salt Lake Center
03:09PM 45.5472 -112.7678 233° Southwest 394 453 28,600 960 Climbing Salt Lake Center
03:10PM 45.4789 -112.8972 233° Southwest 406 467 29,700 1,080 Climbing Salt Lake Center
03:11PM 45.4100 -113.0269 233° Southwest 411 473 30,900 1,080 Climbing Salt Lake Center
03:12PM 45.3381 -113.1619 233° Southwest 405 466 32,000 1,140 Climbing Salt Lake Center
03:13PM 45.2606 -113.3044 232° Southwest 408 470 33,300 1,020 Climbing Salt Lake Center
03:14PM 45.1956 -113.4239 232° Southwest 403 464 34,200 960 Climbing Salt Lake Center
03:15PM 45.1219 -113.5622 233° Southwest 396 456 35,300 960 Climbing Salt Lake Center
03:16PM 45.0567 -113.6786 232° Southwest 394 453 36,300 840 Climbing Salt Lake Center
03:18PM 44.9839 -113.8125 232° Southwest 387 445 37,100 600 Climbing Salt Lake Center
03:19PM 44.9208 -113.9275 232° Southwest 387 445 37,600 420 Climbing Salt Lake Center
03:20PM 44.8508 -114.0542 232° Southwest 386 444 38,000 180 Climbing Salt Lake Center
03:21PM 44.7764 -114.1886 232° Southwest 389 448 38,000  Level Salt Lake Center
03:22PM 44.7136 -114.3017 232° Southwest 385 443 38,000  Level Salt Lake Center
03:23PM 44.6392 -114.4325 231° Southwest 383 441 38,000  Level Salt Lake Center
03:24PM 44.5753 -114.5472 232° Southwest 387 445 38,000  Level Salt Lake Center
03:25PM 44.5086 -114.6644 231° Southwest 397 457 38,000  Level Salt Lake Center
03:26PM 44.4319 -114.8006 232° Southwest 398 458 38,000  Level Salt Lake Center
03:27PM 44.3644 -114.9192 232° Southwest 403 464 38,000  Level Salt Lake Center
03:28PM 44.2842 -115.0575 231° Southwest 408 470 38,000  Level Salt Lake Center
03:29PM 44.2131 -115.1778 231° Southwest 416 479 38,000  Level Salt Lake Center
03:30PM 44.1333 -115.3186 232° Southwest 414 476 38,000  Level Salt Lake Center
03:31PM 44.0650 -115.4364 231° Southwest 408 470 38,000  Level Salt Lake Center
03:32PM 43.9847 -115.5744 231° Southwest 409 471 38,000  Level Salt Lake Center
03:33PM 43.9169 -115.6889 231° Southwest 402 463 38,000  Level Salt Lake Center
03:34PM 43.8494 -115.8064 231° Southwest 404 465 38,000  Level Salt Lake Center
03:35PM 43.7697 -115.9411 231° Southwest 403 464 38,000  Level Salt Lake Center
03:36PM 43.7017 -116.0558 231° Southwest 401 461 38,000  Level Salt Lake Center
03:37PM 43.6236 -116.1886 231° Southwest 398 458 38,000  Level Salt Lake Center
03:38PM 43.5558 -116.3017 230° Southwest 398 458 38,000  Level Salt Lake Center
03:39PM 43.4769 -116.4331 230° Southwest 398 458 38,000  Level Salt Lake Center
03:40PM 43.4097 -116.5439 230° Southwest 395 455 38,000  Level Salt Lake Center
03:41PM 43.3319 -116.6736 231° Southwest 393 452 38,000  Level Salt Lake Center
03:42PM 43.2639 -116.7847 230° Southwest 396 456 38,000  Level Salt Lake Center
03:43PM 43.1969 -116.8947 230° Southwest 392 451 38,000  Level Salt Lake Center
03:44PM 43.1189 -117.0219 230° Southwest 392 451 38,000  Level Salt Lake Center
03:45PM 43.0514 -117.1314 230° Southwest 393 452 38,000  Level Salt Lake Center
03:46PM 42.9736 -117.2581 230° Southwest 390 449 38,000  Level Salt Lake Center
03:47PM 42.9061 -117.3669 230° Southwest 392 451 38,000  Level Salt Lake Center
03:49PM 42.8261 -117.4950 230° Southwest 397 457 38,000  Level Salt Lake Center
03:50PM 42.7569 -117.6058 230° Southwest 399 459 38,000  Level Salt Lake Center
03:51PM 42.6756 -117.7364 230° Southwest 403 464 38,000  Level Salt Lake Center
03:52PM 42.6042 -117.8433 228° Southwest 401 461 38,000  Level Salt Lake Center
03:53PM 42.4950 -117.9208 208° Southwest 395 455 38,000  Level Salt Lake Center
03:54PM 42.3981 -117.9831 205° Southwest 399 459 38,000  Level Salt Lake Center
03:55PM 42.2842 -118.0561 205° Southwest 405 466 38,000  Level Salt Lake Center
03:56PM 42.1883 -118.1150 204° Southwest 406 467 38,000  Level Salt Lake Center
03:57PM 42.0731 -118.1842 204° Southwest 407 468 38,000  Level Salt Lake Center
03:58PM 41.9728 -118.2456 204° Southwest 411 473 38,000  Level Salt Lake Center
03:59PM 41.8572 -118.3158 204° Southwest 410 472 38,000  Level Salt Lake Center
04:00PM 41.7567 -118.3756 204° Southwest 412 474 38,000  Level Salt Lake Center
04:01PM 41.6389 -118.4456 204° Southwest 413 475 38,000  Level Salt Lake Center
04:02PM 41.5392 -118.5044 204° Southwest 410 472 38,000  Level Salt Lake Center
04:03PM 41.4392 -118.5639 204° Southwest 412 474 38,000  Level Salt Lake Center
04:04PM 41.3214 -118.6333 204° Southwest 414 476 38,000  Level Salt Lake Center
04:05PM 41.2206 -118.6933 204° Southwest 414 476 38,000  Level Salt Lake Center
04:06PM 41.1011 -118.7622 203° Southwest 417 480 38,000  Level Salt Lake Center
04:07PM 41.0006 -118.8208 204° Southwest 415 478 38,000  Level Salt Lake Center
04:08PM 40.8814 -118.8889 203° Southwest 414 476 38,000  Level Salt Lake Center
04:09PM 40.7939 -118.9756 217° Southwest 414 476 38,000  Level Salt Lake Center
04:10PM 40.7294 -119.0722 229° Southwest 415 478 38,000  Level Oakland Center
04:11PM 40.6536 -119.1864 229° Southwest 417 480 38,000  Level Oakland Center
04:12PM 40.5772 -119.2994 228° Southwest 414 476 38,000  Level Oakland Center
04:13PM 40.5006 -119.4133 229° Southwest 416 479 38,000  Level Oakland Center
04:14PM 40.4261 -119.5272 229° Southwest 414 476 38,000  Level Oakland Center
04:15PM 40.3494 -119.6411 229° Southwest 417 480 38,000  Level Oakland Center
04:16PM 40.2742 -119.7542 229° Southwest 413 475 38,000  Level Oakland Center
04:17PM 40.1836 -119.8881 229° Southwest 412 474 38,000  Level Oakland Center
04:18PM 40.1078 -120.0017 229° Southwest 415 478 38,000  Level Oakland Center
04:19PM 40.0303 -120.1139 228° Southwest 416 479 38,000  Level Oakland Center
04:20PM 39.9594 -120.2275 231° Southwest 411 473 38,000  Level Oakland Center
04:21PM 39.8831 -120.3383 228° Southwest 411 473 38,000  Level Oakland Center
04:22PM 39.8064 -120.4492 228° Southwest 411 473 38,000  Level Oakland Center
04:23PM 39.7294 -120.5611 228° Southwest 414 476 38,000  Level Oakland Center
04:24PM 39.6383 -120.6950 229° Southwest 413 475 38,000  Level Oakland Center
04:25PM 39.5614 -120.8058 228° Southwest 414 476 38,000  Level Oakland Center
04:26PM 39.4836 -120.9164 228° Southwest 416 479 38,000  Level Oakland Center
04:27PM 39.4069 -121.0256 228° Southwest 411 473 38,000  Level Oakland Center
04:28PM 39.3300 -121.1358 228° Southwest 413 475 38,000  Level Oakland Center
04:29PM 39.2531 -121.2472 228° Southwest 416 479 38,000  Level Oakland Center
04:31PM 39.1611 -121.3775 228° Southwest 413 475 38,000 -180 Level Oakland Center
04:32PM 39.0839 -121.4850 227° Southwest 411 473 37,700 -780 Descending Oakland Center
04:33PM 39.0056 -121.5961 228° Southwest 419 482 36,500 -1,320 Descending Oakland Center
04:34PM 38.9256 -121.7075 227° Southwest 426 490 35,100 -1,440 Descending Oakland Center
04:35PM 38.8483 -121.8150 227° Southwest 416 479 33,600 -1,020 Descending Oakland Center
04:36PM 38.7717 -121.9233 228° Southwest 414 476 33,000 -480 Descending Oakland Center
04:37PM 38.6778 -122.0542 227° Southwest 418 481 32,700 -840 Descending Oakland Center
04:38PM 38.6061 -122.1503 226° Southwest 417 480 31,300 -1,560 Descending Oakland Center
04:39PM 38.5317 -122.2542 228° Southwest 400 460 29,500 -1,980 Descending Oakland Center
04:40PM 38.4439 -122.3742 227° Southwest 387 445 27,300 -2,100 Descending Oakland Center
04:41PM 38.3711 -122.4728 227° Southwest 383 441 25,300 -2,100 Descending Oakland Center
04:42PM 38.2969 -122.5739 227° Southwest 393 452 23,000 -2,340 Descending Oakland Center
04:43PM 38.2228 -122.6758 227° Southwest 395 455 20,500 -2,400 Descending Oakland Center
04:44PM 38.1525 -122.7703 227° Southwest 374 430 18,100 -2,460 Descending Oakland Center
04:45PM 38.0617 -122.8192 203° Southwest 327 376 15,500 -2,280 Descending Oakland Center
04:46PM 37.9878 -122.7611 148° Southeast 314 361 13,500 -1,920 Descending Oakland Center
04:47PM 37.9219 -122.6958 142° Southeast 307 353 11,600 -1,260 Descending Oakland Center
04:48PM 37.8606 -122.6308 140° Southeast 299 344 11,000 -420 Descending Oakland Center
04:49PM 37.8167 -122.5833 139° Southeast 290 334 11,000  Level Northern Cal TRACON
04:50PM 37.7667 -122.5333 142° Southeast 256 295 11,000  Level Northern Cal TRACON
04:51PM 37.7167 -122.4667 133° Southeast 252 290 11,000  Level Northern Cal TRACON
04:52PM 37.6500 -122.4167 149° Southeast 250 288 11,000  Level Northern Cal TRACON
04:53PM 37.6000 -122.3667 142° Southeast 248 285 11,000 -60 Level Northern Cal TRACON
04:54PM 37.5333 -122.3167 149° Southeast 246 283 10,900 -900 Descending Northern Cal TRACON
04:55PM 37.4667 -122.2833 158° South 244 281 9,300 -960 Descending Northern Cal TRACON
04:56PM 37.4167 -122.2667 165° South 249 287 9,000 -480 Descending Northern Cal TRACON
04:57PM 37.3833 -122.3500 243° Southwest 244 281 8,300 -840 Descending Northern Cal TRACON
04:57PM 37.3511 -122.3317 156° South 243 280 7,600 -1,080 Descending Oakland Center
04:58PM 37.3794 -122.2672 61° Northeast 244 281 6,500 -1,020 Descending Oakland Center
04:59PM 37.4258 -122.2139 42° Northeast 232 267 5,600 -600 Descending Oakland Center
05:00PM 37.4714 -122.1594 43° Northeast 228 262 5,300 -300 Descending Oakland Center
05:01PM 37.5219 -122.1592 360° North 208 239 5,100 -540 Descending Oakland Center
05:02PM 37.5544 -122.2228 303° West 184 212 4,300 -1,140 Descending Oakland Center
05:03PM 37.5767 -122.2747 298° West 176 203 2,800 -1,560 Descending Oakland Center
05:05PM 37.5931 -122.3164 296° West 154 177 1,100 -1,260 Descending Oakland Center
05:06PM 37.6108 -122.3567 299° West 139 160 300 -780 Descending Oakland Center